Skip Navigation LinksHome page > Weather > Current weather Skip Navigation Links

Current Weather

San Francisco International, San Francisco

For information only: do not use for flight planning or navigation.
Latest weather
Observation time Wednesday, October 7, 2015 12:56 PM PDT
Local time Wednesday, October 7, 2015 2:00 PM PDT
Flight conditions Visual Meteorological Conditions
Wind direction Northwest (320°)
Wind speed 9 mph
Visibility 10 mi.
Sky condition
Ceiling unlimited
Cloud layer few clouds 1,100 ft.
Cloud layer scattered clouds 18,000 ft.
Temperature 72°F
Dewpoint 56°F
Altimeter 30.12 in.Hg
Derived measurements
Relative humidity 57%
Density altitude 839 ft.
Sea-level pressure 30.12 in.Hg
Automated weather observing station with precipitation discriminator.
METAR KSFO 071956Z 32008KT 10SM FEW011 SCT180 22/13 A3012 RMK AO2 SLP200 T02220133


Location code

InnerDrive.Weather 4.0.5722.1 Release CLR 4.0.30319.34014
Copyright ©2015 Inner Drive Technology. All rights reserved. Portions Copyright ©1986-2015 David Braverman.

Find weather

Site navigation

Skip Navigation Links

Place info

Page info

PayPal - The safer, easier way to pay online!

Return home.

Copyright ©2015 Inner Drive Technology. Purveyors of fine, hand-crafted computer software. Page printed 2015-10-07T21:00:09 UTC.